Harrisburg, Ohio
Current Conditions -  °F | °C
As of 5:55 PM on Saturday 20 Dec 2014 (Local Time) from KTZR Reporting Station
Overcast Overcast  
Wind Chill: 30°   Ceiling: 1800
Heat Index: 30°   Visibility: 7mi
Dew Point: 25°   Wind: 0mph
Humidity: 80%   Direction: NA
Pressure: 30.27"   Gusts: NA
Location:  39.81°N, 83.17°W
Report Text: KTZR 202255Z 00000KT 7SM OVC018 M01/M04 A3027
Loading
Personal Weather Stations






























Interactive Weather Map New forecast layout! Learn more

10-Day Weather Forecast

Advertisements
Track Severe Weather on mobile